Time;durP1;ratioP1;P1;durP2;ratioP2;P2;SDS_P1;SDS_P2;PMS_P1;PMS_P2;Temp;Humidity;BMP_temperature;BMP_pressure;BME280_temperature;BME280_humidity;BME280_pressure;Samples;Min_cycle;Max_cycle;Signal;HPM_P1;HPM_P2
2023/12/16 00:00:22;;;;;;;9.90;4.05;;;22.30;47.00;;;;;;3108236;28;20061;-43
2023/12/16 00:01:53;;;;;;;8.57;4.35;;;22.40;47.00;;;;;;3109431;28;20042;-43
2023/12/16 00:03:26;;;;;;;8.73;3.80;;;22.30;47.00;;;;;;3109657;28;20064;-43
2023/12/16 00:04:58;;;;;;;7.72;4.20;;;22.30;46.90;;;;;;3109546;28;20050;-43
2023/12/16 00:06:30;;;;;;;7.30;3.70;;;22.30;46.90;;;;;;3109140;28;20057;-43
2023/12/16 00:08:01;;;;;;;7.80;4.07;;;22.20;47.10;;;;;;3109449;28;20403;-44
2023/12/16 00:09:32;;;;;;;9.02;3.83;;;22.20;47.10;;;;;;3109446;28;20050;-43
2023/12/16 00:11:04;;;;;;;7.45;3.80;;;22.20;47.20;;;;;;3109810;28;20156;-43
2023/12/16 00:12:35;;;;;;;8.70;3.63;;;22.10;47.20;;;;;;3109417;28;20050;-44
2023/12/16 00:14:06;;;;;;;8.07;3.90;;;22.10;47.30;;;;;;3109438;28;20046;-46
2023/12/16 00:15:37;;;;;;;7.00;3.70;;;22.20;47.00;;;;;;3108329;28;20049;-42
2023/12/16 00:17:08;;;;;;;7.90;3.53;;;22.20;46.90;;;;;;3109410;28;20480;-43
2023/12/16 00:18:40;;;;;;;8.45;3.38;;;22.10;47.00;;;;;;3108437;28;20654;-43
2023/12/16 00:20:12;;;;;;;6.90;3.85;;;22.20;46.90;;;;;;3109243;28;20046;-43
2023/12/16 00:21:43;;;;;;;9.60;3.53;;;22.20;46.70;;;;;;3109568;28;20054;-43
2023/12/16 00:23:14;;;;;;;8.95;3.63;;;22.20;46.70;;;;;;3109492;28;20468;-43
2023/12/16 00:24:45;;;;;;;5.93;3.33;;;22.20;46.70;;;;;;3109286;28;20547;-43
2023/12/16 00:26:17;;;;;;;8.00;3.53;;;22.20;46.70;;;;;;3111372;28;20046;-42
2023/12/16 00:27:48;;;;;;;6.80;3.35;;;22.30;46.60;;;;;;3111656;28;20061;-45
2023/12/16 00:29:19;;;;;;;7.72;3.50;;;22.20;46.70;;;;;;3110415;28;20038;-43
2023/12/16 00:30:50;;;;;;;7.18;3.45;;;22.20;46.60;;;;;;3110919;28;20050;-43
2023/12/16 00:32:22;;;;;;;9.77;4.00;;;22.20;47.00;;;;;;3111525;28;20064;-44
2023/12/16 00:33:54;;;;;;;9.07;3.85;;;22.20;46.60;;;;;;3111576;28;20054;-43
2023/12/16 00:35:26;;;;;;;7.93;3.83;;;22.20;46.60;;;;;;3110630;28;20049;-43
2023/12/16 00:36:56;;;;;;;6.97;3.47;;;22.10;46.70;;;;;;3110783;28;20551;-44
2023/12/16 00:38:28;;;;;;;7.15;3.50;;;22.20;46.60;;;;;;3111605;28;20050;-43
2023/12/16 00:40:01;;;;;;;7.03;3.80;;;22.10;46.60;;;;;;3111431;28;20057;-44
2023/12/16 00:41:31;;;;;;;7.28;3.75;;;22.10;47.20;;;;;;3111658;28;20042;-43
2023/12/16 00:43:03;;;;;;;8.43;3.67;;;22.00;46.70;;;;;;3111284;28;20048;-43
2023/12/16 00:44:34;;;;;;;6.43;3.47;;;22.10;46.90;;;;;;3111392;28;20129;-43
2023/12/16 00:46:06;;;;;;;5.97;3.10;;;22.00;46.90;;;;;;3109686;28;20050;-42
2023/12/16 00:47:38;;;;;;;7.00;3.45;;;21.90;46.90;;;;;;3110931;28;20064;-43
2023/12/16 00:49:11;;;;;;;8.65;3.55;;;21.90;46.90;;;;;;3110574;28;20057;-43
2023/12/16 00:50:42;;;;;;;7.72;3.40;;;21.90;46.80;;;;;;3111336;28;20049;-43
2023/12/16 00:52:14;;;;;;;9.02;3.95;;;22.00;46.90;;;;;;3111378;28;20587;-42
2023/12/16 00:53:44;;;;;;;4.90;3.10;;;21.90;47.00;;;;;;3111283;28;20041;-43
2023/12/16 00:55:16;;;;;;;6.65;3.25;;;21.90;46.90;;;;;;3110558;28;20038;-43
2023/12/16 00:56:47;;;;;;;8.38;3.40;;;21.90;47.00;;;;;;3111528;28;20045;-42
2023/12/16 00:58:19;;;;;;;6.43;3.28;;;21.90;46.90;;;;;;3111181;28;20502;-43
2023/12/16 00:59:49;;;;;;;8.80;3.40;;;21.80;47.00;;;;;;3110697;28;20046;-43
2023/12/16 01:01:21;;;;;;;7.45;3.42;;;22.00;46.70;;;;;;3109573;28;20046;-44
2023/12/16 01:02:52;;;;;;;6.78;3.08;;;22.00;46.70;;;;;;3111412;28;20053;-43
2023/12/16 01:04:24;;;;;;;6.78;3.08;;;22.00;46.70;;;;;;3108417;28;20045;-43
2023/12/16 01:05:55;;;;;;;9.43;3.55;;;21.90;46.50;;;;;;3109773;28;20524;-43
2023/12/16 01:07:27;;;;;;;6.60;3.00;;;22.00;46.50;;;;;;3111005;28;20053;-43
2023/12/16 01:08:57;;;;;;;6.97;2.83;;;21.90;46.80;;;;;;3111060;28;20085;-43
2023/12/16 01:10:29;;;;;;;6.47;3.40;;;21.90;46.80;;;;;;3109533;28;20046;-43
2023/12/16 01:12:00;;;;;;;6.57;3.40;;;21.90;46.70;;;;;;3109141;28;20096;-43
2023/12/16 01:13:31;;;;;;;6.32;3.00;;;21.90;46.70;;;;;;3111194;28;20408;-43
2023/12/16 01:15:03;;;;;;;6.00;2.92;;;21.90;46.50;;;;;;3109101;28;20077;-43
2023/12/16 01:16:34;;;;;;;7.03;3.28;;;21.80;46.70;;;;;;3107967;28;20416;-44
2023/12/16 01:18:05;;;;;;;6.40;2.90;;;21.80;46.80;;;;;;3110899;28;20073;-43
2023/12/16 01:19:38;;;;;;;6.20;3.10;;;21.80;46.60;;;;;;3110824;28;20042;-45
2023/12/16 01:21:08;;;;;;;5.90;3.03;;;21.80;46.80;;;;;;3110833;28;20096;-43
2023/12/16 01:22:40;;;;;;;7.47;3.00;;;21.60;47.10;;;;;;3110822;28;20423;-44
2023/12/16 01:24:11;;;;;;;6.45;2.80;;;21.60;47.10;;;;;;3110473;28;20089;-43
2023/12/16 01:25:42;;;;;;;6.53;3.17;;;21.70;47.00;;;;;;3110943;28;20389;-43
2023/12/16 01:27:13;;;;;;;5.95;2.60;;;21.70;46.90;;;;;;3110658;28;20073;-43
2023/12/16 01:28:45;;;;;;;8.98;3.40;;;21.70;46.90;;;;;;3110718;28;20049;-43
2023/12/16 01:30:15;;;;;;;6.05;2.97;;;21.70;46.90;;;;;;3109905;28;20506;-43
2023/12/16 01:31:47;;;;;;;5.93;2.72;;;21.60;47.00;;;;;;3110982;28;20045;-43
2023/12/16 01:33:18;;;;;;;6.65;3.15;;;21.70;46.90;;;;;;3109754;28;20081;-43
2023/12/16 01:34:50;;;;;;;6.53;2.95;;;21.70;46.80;;;;;;3109571;28;20042;-43
2023/12/16 01:36:22;;;;;;;6.25;2.85;;;21.60;46.70;;;;;;3110970;28;20081;-43
2023/12/16 01:37:53;;;;;;;7.07;2.85;;;21.60;46.80;;;;;;3109965;28;20052;-42
2023/12/16 01:39:24;;;;;;;6.75;3.30;;;21.60;46.90;;;;;;3110742;28;20081;-43
2023/12/16 01:40:56;;;;;;;6.75;2.92;;;21.50;47.00;;;;;;3109568;28;20050;-43
2023/12/16 01:42:26;;;;;;;6.35;2.80;;;21.40;47.10;;;;;;3110743;28;20052;-42
2023/12/16 01:43:58;;;;;;;6.32;2.90;;;21.50;47.00;;;;;;3109099;28;20046;-42
2023/12/16 01:45:29;;;;;;;6.60;2.65;;;21.60;46.90;;;;;;3109409;28;20078;-43
2023/12/16 01:47:00;;;;;;;6.88;2.92;;;21.50;47.00;;;;;;3110491;28;20393;-42
2023/12/16 01:48:31;;;;;;;5.75;2.85;;;21.40;47.00;;;;;;3109718;28;20054;-42
2023/12/16 01:50:05;;;;;;;4.22;2.42;;;21.50;47.00;;;;;;3110557;28;20050;-43
2023/12/16 01:51:35;;;;;;;5.53;2.30;;;21.50;46.90;;;;;;3110440;28;20064;-43
2023/12/16 01:53:07;;;;;;;5.22;2.53;;;21.50;46.90;;;;;;3109925;28;20049;-42
2023/12/16 01:54:38;;;;;;;6.18;2.60;;;21.40;46.80;;;;;;3110298;28;20057;-43
2023/12/16 01:56:10;;;;;;;6.28;2.88;;;21.40;46.90;;;;;;3110189;28;20483;-43
2023/12/16 01:57:41;;;;;;;5.87;2.77;;;21.40;47.00;;;;;;3110372;28;20054;-43
2023/12/16 01:59:15;;;;;;;4.95;2.50;;;21.40;47.10;;;;;;3109078;28;20053;-43
2023/12/16 02:00:46;;;;;;;7.07;2.65;;;21.30;47.20;;;;;;3108649;28;20049;-43
2023/12/16 02:02:18;;;;;;;5.30;2.55;;;21.20;47.10;;;;;;3110473;28;20064;-42
2023/12/16 02:03:49;;;;;;;5.37;2.40;;;21.30;47.20;;;;;;3110682;28;20050;-43
2023/12/16 02:05:22;;;;;;;7.30;2.95;;;21.30;47.20;;;;;;3109558;28;20300;-44
2023/12/16 02:06:53;;;;;;;6.78;3.10;;;21.20;47.10;;;;;;3110228;28;20050;-43
2023/12/16 02:08:25;;;;;;;4.60;2.17;;;21.30;47.00;;;;;;3110377;28;20046;-42
2023/12/16 02:09:55;;;;;;;5.93;2.70;;;21.30;47.00;;;;;;3109719;28;20056;-43
2023/12/16 02:11:27;;;;;;;7.25;2.80;;;21.40;46.90;;;;;;3110030;28;20046;-43
2023/12/16 02:13:01;;;;;;;5.82;2.67;;;21.40;46.90;;;;;;3110398;28;20492;-43
2023/12/16 02:14:33;;;;;;;6.10;2.60;;;21.40;46.90;;;;;;3108682;28;20137;-43
2023/12/16 02:16:05;;;;;;;4.63;2.40;;;21.30;46.80;;;;;;3107650;28;20049;-43
2023/12/16 02:17:36;;;;;;;5.50;2.72;;;21.40;46.90;;;;;;3110024;28;20052;-43
2023/12/16 02:19:10;;;;;;;6.45;2.90;;;21.30;46.80;;;;;;3110461;28;20057;-43
2023/12/16 02:20:43;;;;;;;5.30;2.30;;;21.40;46.80;;;;;;3110109;28;20143;-43
2023/12/16 02:22:14;;;;;;;6.03;2.92;;;21.30;46.80;;;;;;3110340;28;20061;-43
2023/12/16 02:23:46;;;;;;;5.18;2.75;;;21.40;46.60;;;;;;3109774;28;20105;-43
2023/12/16 02:25:17;;;;;;;3.72;2.20;;;21.30;46.70;;;;;;3110056;28;20139;-43
2023/12/16 02:26:49;;;;;;;4.32;2.60;;;21.30;46.60;;;;;;3110142;28;20137;-43
2023/12/16 02:28:20;;;;;;;5.25;2.60;;;21.30;46.70;;;;;;3108096;28;20050;-43
2023/12/16 02:29:51;;;;;;;5.43;2.50;;;21.20;46.90;;;;;;3110367;28;20050;-43
2023/12/16 02:31:23;;;;;;;5.72;2.75;;;21.20;47.10;;;;;;3109567;28;20042;-43
2023/12/16 02:32:56;;;;;;;4.43;2.28;;;21.30;46.80;;;;;;3109885;28;20049;-43
2023/12/16 02:34:28;;;;;;;5.50;2.35;;;21.20;47.00;;;;;;3108016;28;20050;-43
2023/12/16 02:36:00;;;;;;;7.57;2.33;;;21.30;46.80;;;;;;3110274;28;20088;-42
2023/12/16 02:37:31;;;;;;;6.30;2.47;;;21.30;46.60;;;;;;3107915;28;20072;-43
2023/12/16 02:39:04;;;;;;;5.82;2.30;;;21.10;46.70;;;;;;3110098;28;20050;-42
2023/12/16 02:40:41;;;;;;;5.32;2.40;;;21.00;46.80;;;;;;3109684;28;20555;-43
2023/12/16 02:42:12;;;;;;;5.13;2.05;;;21.00;47.60;;;;;;3107357;28;20089;-43
2023/12/16 02:43:44;;;;;;;7.43;2.78;;;21.10;47.00;;;;;;3107675;28;20049;-43
2023/12/16 02:45:17;;;;;;;6.95;2.40;;;21.20;46.70;;;;;;3109494;28;20046;-44
2023/12/16 02:46:49;;;;;;;5.70;2.20;;;21.00;47.00;;;;;;3106411;28;20139;-42
2023/12/16 02:48:19;;;;;;;5.25;2.42;;;21.00;47.00;;;;;;3109938;28;20054;-43
2023/12/16 02:49:51;;;;;;;5.45;2.03;;;21.10;46.90;;;;;;3109962;28;20056;-42
2023/12/16 02:51:22;;;;;;;4.85;2.30;;;21.20;46.60;;;;;;3108706;28;20520;-42
2023/12/16 02:52:53;;;;;;;5.78;2.75;;;21.20;46.50;;;;;;3109841;28;20054;-43
2023/12/16 02:54:26;;;;;;;6.13;2.60;;;21.10;46.50;;;;;;3109349;28;20106;-42
2023/12/16 02:55:58;;;;;;;;;;;21.10;46.50;;;;;;3108797;28;20485;-43
2023/12/16 02:57:29;;;;;;;4.15;2.30;;;21.00;46.60;;;;;;3109506;28;19928;-42
2023/12/16 02:59:00;;;;;;;4.60;2.38;;;20.90;46.70;;;;;;3108424;28;20562;-43
2023/12/16 03:00:31;;;;;;;5.13;2.50;;;20.90;47.00;;;;;;3108567;28;20054;-43
2023/12/16 03:02:02;;;;;;;5.05;2.10;;;21.00;46.80;;;;;;3109739;28;20050;-43
2023/12/16 03:03:34;;;;;;;4.70;2.22;;;21.00;46.70;;;;;;3109951;28;21349;-42
2023/12/16 03:05:06;;;;;;;4.88;2.40;;;21.10;46.60;;;;;;3109717;28;20046;-43
2023/12/16 03:06:42;;;;;;;7.85;2.33;;;21.10;46.50;;;;;;3109948;28;20049;-43
2023/12/16 03:08:13;;;;;;;4.15;2.28;;;21.00;46.50;;;;;;3109144;28;20493;-43
2023/12/16 03:09:45;;;;;;;4.47;2.17;;;21.10;46.40;;;;;;3109617;28;20053;-43
2023/12/16 03:11:17;;;;;;;5.73;2.20;;;21.20;46.30;;;;;;3109710;28;20153;-42
2023/12/16 03:12:47;;;;;;;5.30;2.10;;;21.20;46.30;;;;;;3109837;28;20300;-42
2023/12/16 03:14:19;;;;;;;5.88;2.70;;;21.00;46.30;;;;;;3108476;28;20053;-44
2023/12/16 03:15:49;;;;;;;4.15;2.10;;;21.20;46.20;;;;;;3108846;28;20100;-42
2023/12/16 03:17:21;;;;;;;5.60;2.25;;;21.00;46.30;;;;;;3109521;28;20054;-43
2023/12/16 03:18:52;;;;;;;4.82;2.35;;;20.90;46.50;;;;;;3108877;28;20046;-42
2023/12/16 03:20:23;;;;;;;5.13;2.42;;;20.90;46.40;;;;;;3109095;28;20409;-43
2023/12/16 03:21:54;;;;;;;5.20;2.33;;;20.90;46.50;;;;;;3109931;28;20050;-43
2023/12/16 03:23:26;;;;;;;4.80;2.25;;;20.90;47.10;;;;;;3109757;28;20050;-42
2023/12/16 03:24:58;;;;;;;4.35;1.90;;;21.00;46.40;;;;;;3109022;28;20132;-43
2023/12/16 03:26:30;;;;;;;4.45;2.42;;;21.00;46.10;;;;;;3109628;28;20104;-42
2023/12/16 03:28:02;;;;;;;5.22;2.55;;;21.00;46.20;;;;;;3109495;28;20050;-43
2023/12/16 03:29:33;;;;;;;4.40;2.08;;;21.00;46.20;;;;;;3109759;28;20049;-42
2023/12/16 03:31:04;;;;;;;4.88;2.05;;;21.00;46.10;;;;;;3109431;28;20046;-43
2023/12/16 03:32:35;;;;;;;4.87;2.30;;;21.00;46.20;;;;;;3109643;28;20060;-42
2023/12/16 03:34:07;;;;;;;4.82;2.17;;;21.00;46.20;;;;;;3109706;28;20297;-43
2023/12/16 03:35:37;;;;;;;4.82;1.90;;;21.00;46.10;;;;;;3109471;28;20488;-44
2023/12/16 03:37:10;;;;;;;4.70;1.95;;;21.00;46.10;;;;;;3109669;28;20050;-43
2023/12/16 03:38:41;;;;;;;5.45;2.17;;;20.90;46.20;;;;;;3109624;28;20096;-42
2023/12/16 03:40:14;;;;;;;4.28;2.20;;;20.90;46.20;;;;;;3109168;28;20041;-43
2023/12/16 03:41:45;;;;;;;4.43;2.22;;;20.90;46.30;;;;;;3109170;28;20041;-43
2023/12/16 03:43:17;;;;;;;5.10;2.38;;;20.80;46.40;;;;;;3109687;28;20045;-43
2023/12/16 03:44:48;;;;;;;5.85;2.30;;;20.80;46.40;;;;;;3109396;28;20527;-44
2023/12/16 03:46:21;;;;;;;3.50;1.95;;;20.90;46.20;;;;;;3109174;28;20049;-42
2023/12/16 03:47:51;;;;;;;4.22;1.90;;;20.90;46.20;;;;;;3109660;28;20499;-42
2023/12/16 03:49:23;;;;;;;4.70;2.08;;;20.90;46.00;;;;;;3109456;28;20052;-43
2023/12/16 03:50:54;;;;;;;4.18;2.00;;;21.00;46.00;;;;;;3109557;28;20103;-43
2023/12/16 03:52:25;;;;;;;5.80;2.22;;;21.00;46.20;;;;;;3109368;28;20046;-42
2023/12/16 03:53:56;;;;;;;3.55;2.03;;;21.00;46.00;;;;;;3109857;28;20054;-43
2023/12/16 03:55:29;;;;;;;4.60;1.83;;;20.80;46.10;;;;;;3108577;28;20041;-42
2023/12/16 03:56:59;;;;;;;5.13;2.33;;;20.80;46.20;;;;;;3109031;28;20050;-43
2023/12/16 03:58:31;;;;;;;4.25;1.92;;;20.70;46.40;;;;;;3111398;28;20380;-42
2023/12/16 04:00:02;;;;;;;4.63;2.15;;;20.40;46.70;;;;;;3111510;28;20054;-43
2023/12/16 04:01:34;;;;;;;3.33;1.77;;;20.50;47.00;;;;;;3111126;28;20042;-42
2023/12/16 04:03:04;;;;;;;4.65;1.90;;;20.60;47.10;;;;;;3109726;28;20052;-42
2023/12/16 04:04:36;;;;;;;3.70;1.90;;;20.80;46.90;;;;;;3111853;28;20053;-43
2023/12/16 04:06:10;;;;;;;5.05;1.88;;;21.00;46.50;;;;;;3111753;28;20053;-43
2023/12/16 04:07:41;;;;;;;5.30;2.13;;;21.10;46.10;;;;;;3111448;28;20420;-44
2023/12/16 04:09:13;;;;;;;4.03;1.90;;;21.20;45.80;;;;;;3111987;28;20056;-43
2023/12/16 04:10:45;;;;;;;4.45;1.95;;;21.20;45.90;;;;;;3111831;28;20488;-43
2023/12/16 04:12:17;;;;;;;5.30;1.80;;;21.20;45.70;;;;;;3110237;28;20680;-42
2023/12/16 04:13:48;;;;;;;4.78;2.10;;;21.20;45.60;;;;;;3110338;28;20297;-43
2023/12/16 04:15:20;;;;;;;6.20;2.30;;;21.30;45.50;;;;;;3110630;28;20543;-44
2023/12/16 04:16:51;;;;;;;5.30;1.77;;;21.30;45.40;;;;;;3111288;28;20057;-43
2023/12/16 04:18:23;;;;;;;4.10;2.00;;;21.40;45.40;;;;;;3111619;28;20408;-42
2023/12/16 04:19:54;;;;;;;5.03;1.88;;;21.50;45.30;;;;;;3110259;28;20484;-43
2023/12/16 04:21:25;;;;;;;3.25;1.42;;;21.60;45.30;;;;;;3111884;28;20045;-43
2023/12/16 04:22:56;;;;;;;4.25;1.80;;;21.60;45.10;;;;;;3110383;28;20046;-43
2023/12/16 04:24:28;;;;;;;4.15;1.90;;;21.60;45.10;;;;;;3111492;28;20515;-43
2023/12/16 04:25:59;;;;;;;2.72;1.48;;;21.70;45.10;;;;;;3110538;28;20038;-45
2023/12/16 04:27:31;;;;;;;3.87;2.00;;;21.70;45.20;;;;;;3111433;28;20136;-45
2023/12/16 04:29:03;;;;;;;5.28;1.98;;;21.60;45.20;;;;;;3110229;28;20782;-44
2023/12/16 04:30:33;;;;;;;4.75;1.83;;;21.60;45.30;;;;;;3109723;28;20050;-43
2023/12/16 04:32:05;;;;;;;3.97;1.65;;;21.60;45.30;;;;;;3111533;28;20586;-43
2023/12/16 04:33:36;;;;;;;3.75;1.60;;;21.60;45.30;;;;;;3111172;28;20061;-43
2023/12/16 04:35:08;;;;;;;4.18;1.88;;;21.70;45.20;;;;;;3110750;28;20412;-43
2023/12/16 04:36:40;;;;;;;3.38;1.60;;;21.80;45.20;;;;;;3111459;28;20054;-43
2023/12/16 04:38:10;;;;;;;2.60;1.45;;;21.80;45.20;;;;;;3111132;28;20050;-43
2023/12/16 04:39:42;;;;;;;4.40;1.60;;;21.90;45.00;;;;;;3111501;28;20492;-43
2023/12/16 04:41:15;;;;;;;4.40;1.80;;;21.90;44.80;;;;;;3111404;28;20049;-43
2023/12/16 04:42:46;;;;;;;4.57;1.63;;;21.90;44.70;;;;;;3111289;28;20046;-43
2023/12/16 04:44:17;;;;;;;4.03;1.83;;;22.00;44.60;;;;;;3110004;28;20408;-43
2023/12/16 04:45:48;;;;;;;4.45;1.65;;;22.00;44.60;;;;;;3109382;28;20081;-43
2023/12/16 04:47:20;;;;;;;4.15;1.77;;;22.10;44.50;;;;;;3108791;28;20054;-43
2023/12/16 04:48:50;;;;;;;3.58;1.67;;;22.10;44.40;;;;;;3111569;28;20050;-43
2023/12/16 04:50:22;;;;;;;3.97;1.70;;;22.10;44.40;;;;;;3111283;28;20053;-44
2023/12/16 04:51:53;;;;;;;3.53;1.90;;;22.10;44.30;;;;;;3111129;28;20058;-43
2023/12/16 04:53:24;;;;;;;5.18;1.85;;;22.10;44.10;;;;;;3111396;28;20056;-43
2023/12/16 04:54:55;;;;;;;4.60;1.85;;;22.10;44.10;;;;;;3110081;28;20054;-43
2023/12/16 04:56:28;;;;;;;4.68;1.70;;;22.10;44.10;;;;;;3110503;28;20041;-43
2023/12/16 04:57:59;;;;;;;3.38;1.50;;;22.20;44.10;;;;;;3110326;28;20068;-43
2023/12/16 04:59:30;;;;;;;3.70;1.67;;;22.20;44.10;;;;;;3110888;28;20050;-43
2023/12/16 05:01:02;;;;;;;5.03;2.28;;;22.20;44.00;;;;;;3111068;28;20053;-44
2023/12/16 05:02:33;;;;;;;4.97;2.08;;;22.30;43.90;;;;;;3111227;28;20049;-43
2023/12/16 05:04:05;;;;;;;4.10;1.70;;;22.30;43.80;;;;;;3111265;28;20504;-43
2023/12/16 05:05:36;;;;;;;3.27;1.60;;;22.30;43.90;;;;;;3109954;28;20050;-44
2023/12/16 05:07:07;;;;;;;5.25;1.55;;;22.30;43.90;;;;;;3111047;28;20312;-43
2023/12/16 05:08:38;;;;;;;4.38;1.52;;;22.30;43.80;;;;;;3111482;28;20471;-43
2023/12/16 05:10:10;;;;;;;4.72;1.95;;;22.30;43.60;;;;;;3110561;28;20128;-43
2023/12/16 05:11:42;;;;;;;2.70;1.58;;;22.30;43.50;;;;;;3110430;28;20049;-43
2023/12/16 05:13:14;;;;;;;3.97;1.65;;;22.30;43.60;;;;;;3109214;28;20137;-43
2023/12/16 05:14:44;;;;;;;3.47;1.70;;;22.30;43.50;;;;;;3110751;28;20436;-43
2023/12/16 05:16:19;;;;;;;3.35;1.50;;;22.30;43.60;;;;;;3110789;28;20042;-43
2023/12/16 05:17:50;;;;;;;2.80;1.40;;;22.30;43.50;;;;;;3110881;28;20054;-43
2023/12/16 05:19:21;;;;;;;3.65;1.60;;;22.40;43.40;;;;;;3111467;28;20046;-43
2023/12/16 05:20:52;;;;;;;3.33;1.65;;;22.40;43.30;;;;;;3110225;28;20069;-43
2023/12/16 05:22:23;;;;;;;3.22;1.42;;;22.40;43.30;;;;;;3110069;28;20058;-43
2023/12/16 05:23:55;;;;;;;5.38;1.88;;;22.40;43.50;;;;;;3111070;28;20057;-45
2023/12/16 05:25:26;;;;;;;4.05;1.48;;;22.40;43.40;;;;;;3111156;28;20480;-43
2023/12/16 05:26:59;;;;;;;3.55;1.40;;;22.50;43.30;;;;;;3110142;28;20041;-43
2023/12/16 05:28:31;;;;;;;3.70;1.63;;;22.50;43.30;;;;;;3111005;28;20053;-43
2023/12/16 05:30:03;;;;;;;3.85;1.65;;;22.50;43.30;;;;;;3108433;28;20381;-45
2023/12/16 05:31:33;;;;;;;4.80;1.60;;;22.50;43.30;;;;;;3110117;28;20072;-44
2023/12/16 05:33:05;;;;;;;2.65;1.42;;;22.50;43.10;;;;;;3111064;28;20046;-43
2023/12/16 05:34:36;;;;;;;4.32;1.63;;;22.60;43.10;;;;;;3110767;28;20054;-43
2023/12/16 05:36:08;;;;;;;3.97;1.60;;;22.60;43.10;;;;;;3111051;28;20045;-43
2023/12/16 05:37:38;;;;;;;4.32;1.77;;;22.60;43.00;;;;;;3110621;28;20050;-43
2023/12/16 05:39:10;;;;;;;5.00;1.80;;;22.70;42.90;;;;;;3110891;28;20413;-43
2023/12/16 05:40:41;;;;;;;2.70;1.48;;;22.70;42.90;;;;;;3108021;28;20554;-43
2023/12/16 05:42:14;;;;;;;4.60;1.50;;;22.70;42.90;;;;;;3111167;28;20074;-44
2023/12/16 05:43:44;;;;;;;3.85;1.60;;;22.70;42.80;;;;;;3108369;28;20057;-43
2023/12/16 05:45:16;;;;;;;3.10;1.48;;;22.70;42.90;;;;;;3109262;28;20054;-43
2023/12/16 05:46:47;;;;;;;3.70;1.45;;;22.70;42.90;;;;;;3110741;28;20053;-43
2023/12/16 05:48:18;;;;;;;4.13;1.60;;;22.80;42.90;;;;;;3110761;28;20080;-46
2023/12/16 05:49:49;;;;;;;5.82;1.60;;;22.80;42.70;;;;;;3110531;28;20053;-43
2023/12/16 05:51:21;;;;;;;4.35;1.48;;;22.80;42.80;;;;;;3110500;28;20042;-45
2023/12/16 05:52:52;;;;;;;3.75;1.67;;;22.80;42.60;;;;;;3108631;28;20074;-43
2023/12/16 05:54:23;;;;;;;4.78;1.60;;;22.80;42.60;;;;;;3109967;28;20050;-43
2023/12/16 05:55:55;;;;;;;2.42;1.60;;;22.80;42.50;;;;;;3110706;28;20049;-44
2023/12/16 05:57:27;;;;;;;4.28;1.60;;;22.90;42.40;;;;;;3110461;28;20053;-44
2023/12/16 05:58:58;;;;;;;3.88;1.50;;;22.90;42.40;;;;;;3110865;28;20084;-45
2023/12/16 06:00:29;;;;;;;3.85;2.13;;;22.80;42.50;;;;;;3110399;28;20046;-43
2023/12/16 06:02:00;;;;;;;3.00;1.30;;;22.90;42.50;;;;;;3110302;28;20050;-42
2023/12/16 06:03:31;;;;;;;2.75;1.40;;;22.80;42.40;;;;;;3109905;28;20088;-44
2023/12/16 06:05:03;;;;;;;3.20;1.50;;;22.90;42.30;;;;;;3107332;28;20057;-43
2023/12/16 06:06:35;;;;;;;2.72;1.45;;;22.90;42.30;;;;;;3110424;28;20053;-45
2023/12/16 06:08:05;;;;;;;4.07;1.70;;;22.80;42.30;;;;;;3110067;28;20073;-43
2023/12/16 06:09:37;;;;;;;3.63;1.58;;;22.90;42.10;;;;;;3110025;28;20041;-42
2023/12/16 06:11:10;;;;;;;4.05;1.50;;;22.80;42.00;;;;;;3109535;28;20054;-43
2023/12/16 06:12:43;;;;;;;2.92;1.33;;;22.80;42.00;;;;;;3109508;28;20056;-42
2023/12/16 06:14:13;;;;;;;3.80;1.65;;;22.90;41.90;;;;;;3109979;28;20050;-43
2023/12/16 06:15:45;;;;;;;4.32;1.70;;;22.90;41.90;;;;;;3109591;28;20038;-43
2023/12/16 06:17:16;;;;;;;4.03;1.60;;;22.80;41.90;;;;;;3109879;28;20057;-42
2023/12/16 06:18:48;;;;;;;5.18;1.38;;;22.70;42.10;;;;;;3110107;28;20488;-43
2023/12/16 06:20:20;;;;;;;5.63;1.60;;;22.80;42.20;;;;;;3109938;28;20060;-45
2023/12/16 06:21:50;;;;;;;5.97;1.45;;;22.80;42.00;;;;;;3108986;28;20408;-43
2023/12/16 06:23:22;;;;;;;3.92;1.50;;;22.70;41.90;;;;;;3110399;28;20046;-43
2023/12/16 06:24:53;;;;;;;3.08;1.50;;;22.80;42.00;;;;;;3109840;28;20053;-43
2023/12/16 06:26:24;;;;;;;2.55;1.10;;;22.70;42.30;;;;;;3110077;28;20042;-42
2023/12/16 06:27:56;;;;;;;3.67;1.55;;;22.60;42.30;;;;;;3109725;28;20046;-43
2023/12/16 06:29:28;;;;;;;3.72;1.52;;;22.60;42.30;;;;;;3110301;28;20057;-43
2023/12/16 06:30:59;;;;;;;4.25;1.50;;;22.70;42.00;;;;;;3110063;28;20057;-43
2023/12/16 06:32:30;;;;;;;3.35;1.40;;;22.60;42.10;;;;;;3110244;28;20053;-43
2023/12/16 06:34:01;;;;;;;4.18;1.42;;;22.70;42.20;;;;;;3110025;28;20085;-43
2023/12/16 06:35:33;;;;;;;3.30;1.40;;;22.70;42.30;;;;;;3110032;28;20050;-44
2023/12/16 06:37:03;;;;;;;2.35;1.52;;;22.70;41.90;;;;;;3109719;28;20061;-44
2023/12/16 06:38:35;;;;;;;6.00;1.75;;;22.80;41.70;;;;;;3110110;28;20496;-43
2023/12/16 06:40:07;;;;;;;3.97;1.63;;;22.80;41.90;;;;;;3109290;28;20049;-44
2023/12/16 06:41:39;;;;;;;3.63;1.40;;;22.60;42.00;;;;;;3110162;28;20052;-42
2023/12/16 06:43:12;;;;;;;4.28;1.50;;;22.70;42.10;;;;;;3109660;28;20069;-45
2023/12/16 06:44:42;;;;;;;2.83;1.27;;;22.60;42.20;;;;;;3108957;28;20060;-42
2023/12/16 06:46:19;;;;;;;4.97;1.48;;;22.60;42.40;;;;;;3109888;28;20045;-42
2023/12/16 06:47:49;;;;;;;2.47;1.40;;;22.60;42.50;;;;;;3109471;28;20492;-44
2023/12/16 06:49:21;;;;;;;3.47;1.35;;;22.60;42.50;;;;;;3109950;28;20092;-43
2023/12/16 06:50:57;;;;;;;2.70;1.27;;;22.60;42.30;;;;;;3109717;28;20412;-43
2023/12/16 06:52:28;;;;;;;5.25;1.40;;;22.60;42.30;;;;;;3107541;28;20645;-44
2023/12/16 06:53:59;;;;;;;3.97;1.45;;;22.60;43.10;;;;;;3109920;28;20248;-42
2023/12/16 06:55:31;;;;;;;5.18;1.63;;;22.60;42.90;;;;;;3110009;28;20049;-43
2023/12/16 06:57:01;;;;;;;4.15;1.52;;;22.50;43.00;;;;;;3109356;28;20527;-43
2023/12/16 06:58:34;;;;;;;4.53;1.40;;;22.60;43.00;;;;;;3109380;28;20050;-45
2023/12/16 07:00:06;;;;;;;6.97;1.77;;;22.60;43.10;;;;;;3109582;28;20057;-42
2023/12/16 07:01:38;;;;;;;4.00;1.80;;;22.50;43.40;;;;;;3111673;28;20064;-45
2023/12/16 07:03:09;;;;;;;5.20;1.53;;;22.50;43.50;;;;;;3110000;28;20413;-43
2023/12/16 07:04:40;;;;;;;3.30;1.30;;;22.40;43.70;;;;;;3109218;28;20041;-42
2023/12/16 07:06:12;;;;;;;4.20;1.50;;;22.40;43.70;;;;;;3109739;28;20045;-42
2023/12/16 07:07:43;;;;;;;6.05;1.40;;;22.40;43.70;;;;;;3110499;28;20057;-42
2023/12/16 07:09:14;;;;;;;3.85;1.33;;;22.60;43.60;;;;;;3109408;28;20057;-42
2023/12/16 07:10:45;;;;;;;5.82;1.65;;;22.60;43.40;;;;;;3109102;28;20046;-43
2023/12/16 07:12:17;;;;;;;7.57;1.60;;;22.60;43.60;;;;;;3109901;28;20046;-42
2023/12/16 07:13:49;;;;;;;4.65;1.40;;;22.60;43.50;;;;;;3109770;28;20055;-43
2023/12/16 07:15:20;;;;;;;5.18;1.40;;;22.60;43.60;;;;;;3109685;28;20061;-43
2023/12/16 07:16:51;;;;;;;10.50;1.30;;;22.50;43.90;;;;;;3109608;28;20049;-43
2023/12/16 07:18:22;;;;;;;2.75;1.20;;;22.50;44.00;;;;;;3109014;28;20045;-43
2023/12/16 07:19:53;;;;;;;5.07;1.50;;;22.60;44.10;;;;;;3108871;28;20060;-42
2023/12/16 07:21:27;;;;;;;5.03;1.70;;;22.60;44.40;;;;;;3109665;28;20046;-44
2023/12/16 07:22:57;;;;;;;4.60;1.42;;;22.60;44.50;;;;;;3109617;28;20137;-43
2023/12/16 07:24:29;;;;;;;4.70;1.17;;;22.60;44.70;;;;;;3109582;28;20493;-43
2023/12/16 07:26:00;;;;;;;3.65;1.40;;;22.60;44.80;;;;;;3109562;28;20065;-43
2023/12/16 07:27:31;;;;;;;3.40;1.35;;;22.60;45.10;;;;;;3109518;28;20045;-44
2023/12/16 07:29:03;;;;;;;3.45;1.40;;;22.70;45.10;;;;;;3109702;28;20054;-42
2023/12/16 07:30:35;;;;;;;2.92;1.40;;;22.60;45.10;;;;;;3109868;28;20056;-43
2023/12/16 07:32:06;;;;;;;4.47;1.60;;;22.70;45.40;;;;;;3109585;28;20116;-43
2023/12/16 07:33:38;;;;;;;4.68;1.35;;;22.70;45.40;;;;;;3111525;28;20085;-43
2023/12/16 07:35:12;;;;;;;2.67;1.40;;;22.60;45.50;;;;;;3112114;28;20054;-42
2023/12/16 07:36:44;;;;;;;3.13;1.23;;;22.70;45.40;;;;;;3111772;28;20100;-42
2023/12/16 07:38:15;;;;;;;3.78;1.50;;;22.60;45.80;;;;;;3111821;28;20077;-44
2023/12/16 07:39:47;;;;;;;2.20;1.20;;;22.60;45.80;;;;;;3111180;28;20053;-44
2023/12/16 07:41:18;;;;;;;2.25;1.13;;;22.60;45.90;;;;;;3112188;28;20046;-42
2023/12/16 07:42:50;;;;;;;3.47;1.30;;;22.60;45.90;;;;;;3112994;28;20053;-43
2023/12/16 07:44:22;;;;;;;3.70;1.20;;;22.70;45.80;;;;;;3108137;28;20054;-42
2023/12/16 07:45:53;;;;;;;2.65;1.40;;;22.70;45.80;;;;;;3111170;28;20073;-43
2023/12/16 07:47:24;;;;;;;5.70;1.08;;;22.70;45.80;;;;;;3110111;28;20056;-44
2023/12/16 07:48:55;;;;;;;4.00;1.30;;;22.70;45.70;;;;;;3111204;28;20052;-42
2023/12/16 07:50:26;;;;;;;3.22;1.55;;;;;;;;;;3111602;28;20488;-42
2023/12/16 07:52:00;;;;;;;3.33;1.60;;;22.80;45.10;;;;;;3111136;28;20045;-43
2023/12/16 07:53:32;;;;;;;1.95;1.20;;;22.70;45.60;;;;;;3110092;28;20049;-43
2023/12/16 07:55:03;;;;;;;2.60;1.20;;;22.70;45.60;;;;;;3111883;28;20053;-42
2023/12/16 07:56:35;;;;;;;1.95;1.10;;;22.80;45.50;;;;;;3110130;28;20400;-44